Artesia ASC Data

Date Time Air Temperature Relative Humidity Dewpoint Windchill Heat Index Wind Speed Wind Dir. Rain Solar Radiation Soil Temperature
2m 2m 3m 3m 10cm
US/Mountain F % F F F MPH deg in MJ/m^2 F
max avg avg
2021-05-04 00:05:00 51.4 71.5 42.5 51.4 51.4 16.0 16.0 10.3 347.0 343.9 0.00 0.0000000 65.6
2021-05-04 00:10:00 51.5 72.4 43.0 51.5 51.5 12.4 15.1 11.9 329.5 335.2 0.00 0.0000000 65.5
2021-05-04 00:15:00 51.3 73.5 43.1 51.3 51.3 13.1 17.1 12.5 331.1 330.9 0.00 0.0000000 65.5
2021-05-04 00:20:00 51.7 73.1 43.4 51.7 51.7 11.9 15.5 11.7 351.2 328.8 0.00 0.0000000 65.4
2021-05-04 00:25:00 51.7 71.9 42.9 51.7 51.7 14.2 14.4 12.2 347.9 335.5 0.00 0.0000000 65.3
2021-05-04 00:30:00 51.6 71.4 42.6 51.6 51.6 14.4 15.5 11.3 343.9 345.0 0.00 0.0000000 65.3
2021-05-04 00:35:00 51.3 72.6 42.8 51.3 51.3 12.4 15.5 11.6 332.6 337.6 0.00 0.0000000 65.2
2021-05-04 00:40:00 50.9 73.8 42.8 50.9 50.9 11.0 15.1 11.5 329.2 337.6 0.00 0.0000000 65.1
2021-05-04 00:45:00 50.7 74.3 42.9 50.7 50.7 11.0 16.2 11.3 313.8 331.4 0.00 0.0000000 65.1
2021-05-04 00:50:00 50.8 74.7 43.1 50.8 50.8 10.5 13.0 10.4 328.4 334.9 0.00 0.0000000 65.0
2021-05-04 00:55:00 50.5 75.2 42.9 50.5 50.5 9.4 14.6 10.2 342.9 332.2 0.00 0.0000000 65.0
2021-05-04 01:00:00 50.5 75.4 43.0 50.5 50.5 9.4 11.0 8.9 318.3 336.5 0.00 0.0000000 64.9
2021-05-04 01:05:00 50.5 76.0 43.2 50.5 50.5 9.7 14.7 9.7 341.8 338.1 0.00 0.0000000 64.8
2021-05-04 01:10:00 50.5 75.6 43.1 50.5 50.5 7.1 11.2 8.6 339.2 338.8 0.00 0.0000000 64.8
2021-05-04 01:15:00 50.3 76.1 43.1 50.3 50.3 11.9 12.6 9.5 341.4 341.9 0.00 0.0000000 64.7
2021-05-04 01:20:00 50.3 75.3 42.7 50.3 50.3 9.4 13.1 10.5 324.9 340.2 0.00 0.0000000 64.7
2021-05-04 01:25:00 50.4 74.8 42.7 50.4 50.4 13.1 14.0 11.1 337.7 331.7 0.00 0.0000000 64.6
2021-05-04 01:30:00 50.5 74.1 42.5 50.5 50.5 9.9 15.1 11.6 340.0 332.9 0.00 0.0000000 64.5
2021-05-04 01:35:00 50.4 72.9 42.1 50.4 50.4 11.7 15.8 11.2 341.3 336.5 0.00 0.0000000 64.5
2021-05-04 01:40:00 50.6 72.0 41.9 50.6 50.6 11.0 14.4 11.4 332.3 336.8 0.00 0.0000000 64.4
2021-05-04 01:45:00 50.8 72.1 42.1 50.8 50.8 8.1 14.7 11.3 299.6 329.6 0.00 0.0000000 64.4
2021-05-04 01:50:00 50.7 72.0 42.0 50.7 50.7 10.6 18.3 11.1 331.6 331.9 0.00 0.0000000 64.3
2021-05-04 01:55:00 50.8 70.8 41.7 50.8 50.8 10.5 15.3 11.9 334.3 337.7 0.00 0.0000000 64.3
2021-05-04 02:00:00 51.2 71.1 42.1 51.2 51.2 9.7 13.1 10.2 340.7 338.3 0.00 0.0000000 64.2
2021-05-04 02:05:00 51.2 70.4 41.9 51.2 51.2 6.9 15.3 10.8 331.1 343.8 0.00 0.0000000 64.2
2021-05-04 02:10:00 51.1 70.6 41.9 51.1 51.1 11.0 14.2 11.1 321.0 342.6 0.00 0.0000000 64.1
2021-05-04 02:15:00 51.2 70.5 41.9 51.2 51.2 9.9 16.0 11.5 23.6 340.8 0.00 0.0000000 64.1
2021-05-04 02:20:00 51.2 70.7 42.0 51.2 51.2 12.8 13.9 10.0 327.2 340.6 0.00 0.0000000 64.0
2021-05-04 02:25:00 51.3 70.9 42.2 51.3 51.3 7.1 18.3 10.4 335.6 349.9 0.00 0.0000000 64.0
2021-05-04 02:30:00 51.3 70.5 42.0 51.3 51.3 11.5 11.5 7.5 31.8 357.2 0.00 0.0000000 64.0
2021-05-04 02:35:00 51.4 71.0 42.2 51.4 51.4 10.8 14.6 9.5 344.6 346.6 0.00 0.0000000 63.9
2021-05-04 02:40:00 51.2 71.2 42.2 51.2 51.2 7.2 17.8 10.2 8.4 344.9 0.00 0.0000000 63.9
2021-05-04 02:45:00 51.3 71.3 42.3 51.3 51.3 7.2 12.2 7.7 0.2 352.6 0.00 0.0000000 63.8
2021-05-04 02:50:00 51.1 71.0 42.0 51.1 51.1 7.2 11.0 8.1 338.8 358.1 0.00 0.0000000 63.8
2021-05-04 02:55:00 51.3 71.5 42.4 51.3 51.3 7.2 11.7 8.3 340.4 349.3 0.00 0.0000000 63.7
2021-05-04 03:00:00 51.0 71.4 42.1 51.0 51.0 6.3 11.5 8.0 339.9 350.4 0.00 0.0000000 63.7
2021-05-04 03:05:00 51.2 71.8 42.4 51.2 51.2 9.4 9.4 6.3 338.7 2.7 0.00 0.0000000 63.6
2021-05-04 03:10:00 51.1 71.7 42.3 51.1 51.1 8.7 11.3 7.5 1.5 348.6 0.00 0.0000000 63.6
2021-05-04 03:15:00 51.0 71.9 42.3 51.0 51.0 7.8 11.0 7.3 3.7 349.9 0.00 0.0000000 63.6
2021-05-04 03:20:00 51.2 71.8 42.4 51.2 51.2 5.8 10.5 7.1 12.6 353.7 0.00 0.0000000 63.5
2021-05-04 03:25:00 51.0 72.0 42.3 51.0 51.0 4.9 12.6 7.0 350.9 348.7 0.00 0.0000000 63.5
2021-05-04 03:30:00 50.9 71.9 42.2 50.9 50.9 8.3 10.8 7.3 346.2 343.4 0.00 0.0000000 63.4
2021-05-04 03:35:00 50.9 71.8 42.1 50.9 50.9 12.6 14.2 10.0 4.3 344.0 0.00 0.0000000 63.4
2021-05-04 03:40:00 51.2 71.5 42.3 51.2 51.2 6.7 12.1 8.1 345.2 352.2 0.00 0.0000000 63.4
2021-05-04 03:45:00 51.1 72.1 42.4 51.1 51.1 10.5 16.0 9.8 327.6 340.0 0.00 0.0000000 63.3
2021-05-04 03:50:00 51.0 71.9 42.3 51.0 51.0 12.6 12.6 9.2 349.1 341.5 0.00 0.0000000 63.3
2021-05-04 03:55:00 51.1 71.7 42.3 51.1 51.1 8.5 14.7 8.5 351.8 354.8 0.00 0.0000000 63.3
2021-05-04 04:00:00 51.1 71.3 42.2 51.1 51.1 11.9 12.8 9.2 0.7 336.9 0.00 0.0000000 63.2
2021-05-04 04:05:00 51.0 71.3 42.0 51.0 51.0 7.4 11.3 7.9 349.3 352.4 0.00 0.0000000 63.2
2021-05-04 04:10:00 51.4 71.4 42.4 51.4 51.4 6.0 9.4 6.2 352.1 351.7 0.00 0.0000000 63.2
2021-05-04 04:15:00 51.1 71.3 42.1 51.1 51.1 10.8 11.5 6.4 346.3 350.1 0.00 0.0000000 63.1
2021-05-04 04:20:00 51.2 71.8 42.4 51.2 51.2 8.8 13.0 8.5 348.0 347.7 0.00 0.0000000 63.1
2021-05-04 04:25:00 50.9 71.7 42.1 50.9 50.9 7.2 11.3 7.6 3.5 342.2 0.00 0.0000000 63.1
2021-05-04 04:30:00 51.1 71.9 42.4 51.1 51.1 9.0 12.4 8.0 0.3 348.1 0.00 0.0000000 63.0
2021-05-04 04:35:00 51.0 71.8 42.3 51.0 51.0 5.5 11.5 6.9 16.9 355.3 0.00 0.0000000 63.0
2021-05-04 04:40:00 51.0 72.3 42.4 51.0 51.0 10.5 10.5 6.7 330.8 350.4 0.00 0.0000000 63.0
2021-05-04 04:45:00 51.0 71.2 42.0 51.0 51.0 6.0 10.1 5.4 349.2 353.4 0.00 0.0000000 62.9
2021-05-04 04:50:00 51.1 72.3 42.5 51.1 51.1 6.5 8.7 6.8 350.3 353.6 0.00 0.0000000 62.9
2021-05-04 04:55:00 51.2 71.6 42.3 51.2 51.2 4.7 8.1 5.6 332.3 3.5 0.00 0.0000000 62.9
2021-05-04 05:00:00 51.0 71.8 42.2 51.0 51.0 4.2 7.8 4.7 311.2 357.3 0.00 0.0000000 62.9
2021-05-04 05:05:00 51.3 72.0 42.6 51.3 51.3 5.3 6.9 4.4 14.2 359.5 0.00 0.0000000 62.9
2021-05-04 05:10:00 51.2 72.0 42.5 51.2 51.2 2.8 7.4 4.1 351.5 9.6 0.00 0.0000000 62.8
2021-05-04 05:15:00 51.0 72.0 42.3 51.0 51.0 6.7 9.9 5.3 10.2 0.7 0.00 0.0000000 62.8
2021-05-04 05:20:00 51.1 71.9 42.4 51.1 51.1 4.2 8.3 5.5 352.1 1.7 0.00 0.0000000 62.8
2021-05-04 05:25:00 50.9 72.0 42.2 50.9 50.9 3.0 8.7 4.4 0.4 13.0 0.00 0.0000000 62.7
2021-05-04 05:30:00 51.0 72.0 42.3 51.0 51.0 4.4 7.8 4.6 347.4 355.5 0.00 0.0000000 62.7
2021-05-04 05:35:00 51.1 72.4 42.5 51.1 51.1 5.3 7.8 5.0 348.2 355.6 0.00 0.0000000 62.7
2021-05-04 05:40:00 51.1 72.3 42.5 51.1 51.1 3.8 7.1 4.6 12.7 355.7 0.00 0.0000000 62.6
2021-05-04 05:45:00 51.2 72.3 42.6 51.2 51.2 3.7 6.2 4.1 334.8 358.6 0.00 0.0000000 62.6
2021-05-04 05:50:00 51.3 72.3 42.7 51.3 51.3 5.1 7.1 4.8 21.6 2.6 0.00 0.0000000 62.6
2021-05-04 05:55:00 51.1 72.0 42.4 51.1 51.1 4.4 6.7 4.4 336.9 6.1 0.00 0.0000000 62.6
2021-05-04 06:00:00 51.0 72.2 42.4 51.0 51.0 3.1 7.4 5.0 0.2 356.9 0.00 0.0000000 62.6
2021-05-04 06:05:00 51.2 72.1 42.5 51.2 51.2 4.9 4.9 3.3 47.0 0.8 0.00 0.0010000 62.5
2021-05-04 06:10:00 51.1 72.2 42.5 51.1 51.1 3.1 8.3 4.4 17.0 0.4 0.00 0.0020000 62.5
2021-05-04 06:15:00 51.2 72.1 42.5 51.2 51.2 4.7 5.6 4.0 327.6 359.6 0.00 0.0040000 62.5
2021-05-04 06:20:00 51.3 72.2 42.7 51.3 51.3 3.8 6.5 5.0 23.3 0.2 0.00 0.0060000 62.5
2021-05-04 06:25:00 51.2 72.4 42.6 51.2 51.2 2.8 5.5 3.9 27.6 358.8 0.00 0.0060000 62.4
2021-05-04 06:30:00 51.4 72.3 42.7 51.4 51.4 4.7 6.2 4.3 15.7 3.1 0.00 0.0090000 62.4
2021-05-04 06:35:00 51.2 72.6 42.7 51.2 51.2 4.2 5.5 3.6 29.9 353.0 0.00 0.0130000 62.4
2021-05-04 06:40:00 51.5 72.7 43.0 51.5 51.5 4.0 5.5 3.7 341.6 348.8 0.00 0.0170000 62.4
2021-05-04 06:45:00 51.4 72.6 42.9 51.4 51.4 3.5 6.7 4.4 0.3 357.8 0.00 0.0230000 62.4
2021-05-04 06:50:00 51.4 72.3 42.8 51.4 51.4 3.8 6.2 4.5 2.1 9.9 0.00 0.0310000 62.4
2021-05-04 06:55:00 51.3 72.5 42.8 51.3 51.3 4.7 9.2 4.8 348.3 352.4 0.00 0.0340000 62.3
2021-05-04 07:00:00 51.5 73.1 43.2 51.5 51.5 3.1 6.9 4.9 17.9 350.8 0.00 0.0400000 62.3
2021-05-04 07:05:00 51.5 72.8 43.1 51.5 51.5 4.2 8.5 4.9 331.0 347.8 0.00 0.0420000 62.3
2021-05-04 07:10:00 51.7 72.9 43.3 51.7 51.7 6.3 7.6 4.5 334.8 348.7 0.00 0.0520000 62.3
2021-05-04 07:15:00 51.8 72.1 43.1 51.8 51.8 5.8 8.3 5.7 330.3 358.8 0.00 0.0660000 62.2
2021-05-04 07:20:00 52.0 71.7 43.1 52.0 52.0 2.8 5.8 4.2 13.6 357.2 0.00 0.0790000 62.2
2021-05-04 07:25:00 52.1 70.7 42.9 52.1 52.1 6.5 7.1 4.5 324.8 2.1 0.00 0.0600000 62.2
2021-05-04 07:30:00 52.2 70.3 42.8 52.2 52.2 3.1 7.1 4.9 323.7 9.7 0.00 0.0720000 62.2
2021-05-04 07:35:00 52.5 69.7 42.9 52.5 52.5 3.8 7.1 4.4 335.6 4.5 0.00 0.0520000 62.2
2021-05-04 07:40:00 52.3 69.0 42.4 52.3 52.3 6.7 6.7 4.6 42.2 3.1 0.00 0.0630000 62.2
2021-05-04 07:45:00 52.5 67.8 42.2 52.5 52.5 6.0 9.7 5.3 15.6 4.2 0.00 0.0980000 62.2
2021-05-04 07:50:00 52.8 68.3 42.6 52.8 52.8 5.5 6.9 4.7 334.3 8.1 0.00 0.1210000 62.2
2021-05-04 07:55:00 52.1 71.1 43.1 52.1 52.1 6.0 9.6 7.5 341.6 341.5 0.00 0.1860000 62.2
2021-05-04 08:00:00 52.8 68.1 42.5 52.8 52.8 5.1 7.6 4.9 1.8 3.8 0.00 0.4280000 62.2
2021-05-04 08:05:00 53.3 66.5 42.4 53.3 53.3 5.5 7.6 4.6 17.5 14.2 0.00 0.3240000 62.2
2021-05-04 08:10:00 53.5 67.0 42.9 53.5 53.5 3.8 11.0 5.6 326.0 357.1 0.00 0.1680000 62.1
2021-05-04 08:15:00 53.4 67.8 43.0 53.4 53.4 6.9 9.4 6.6 333.2 349.9 0.00 0.4410000 62.1
2021-05-04 08:20:00 54.2 64.6 42.5 54.2 54.2 6.2 9.7 6.2 17.3 352.5 0.00 0.4270000 62.1
2021-05-04 08:25:00 53.9 64.8 42.3 53.9 53.9 7.4 11.7 7.0 28.1 357.6 0.00 0.1860000 62.1
2021-05-04 08:30:00 54.5 63.8 42.5 54.5 54.5 3.1 9.0 5.5 44.0 4.0 0.00 0.2480000 62.1
2021-05-04 08:35:00 55.0 60.9 41.7 55.0 55.0 5.6 8.1 4.8 4.7 9.1 0.00 0.3230000 62.1
2021-05-04 08:40:00 54.6 62.9 42.2 54.6 54.6 6.5 7.8 5.7 21.8 6.2 0.00 0.6730000 62.1
2021-05-04 08:45:00 55.7 60.7 42.4 55.7 55.7 5.1 8.5 5.8 40.7 23.8 0.00 0.5220000 62.1
2021-05-04 08:50:00 55.0 62.3 42.4 55.0 55.0 5.1 9.6 5.7 327.4 359.5 0.00 0.2850000 62.1
2021-05-04 08:55:00 55.5 60.9 42.3 55.5 55.5 6.2 7.8 5.6 348.6 346.3 0.00 0.3920000 62.1
2021-05-04 09:00:00 54.8 61.9 42.0 54.8 54.8 3.3 7.8 6.3 36.8 8.0 0.00 0.3360000 62.1
2021-05-04 09:05:00 55.5 60.0 41.9 55.5 55.5 3.3 8.1 4.7 26.0 29.5 0.00 0.3300000 62.1
2021-05-04 09:10:00 55.3 59.4 41.4 55.3 55.3 4.7 8.3 4.9 349.5 17.3 0.00 0.2910000 62.1
2021-05-04 09:15:00 55.1 58.8 40.9 55.1 55.1 6.0 8.1 5.8 22.7 5.8 0.00 0.2640000 62.1
2021-05-04 09:20:00 55.3 60.4 41.8 55.3 55.3 4.7 6.5 4.8 313.7 16.5 0.00 0.3830000 62.1
2021-05-04 09:25:00 55.2 60.8 41.9 55.2 55.2 2.4 9.0 6.1 67.1 349.8 0.00 0.8010000 62.2
2021-05-04 09:30:00 56.7 54.7 40.6 56.7 56.7 5.6 9.7 5.2 46.8 20.1 0.00 0.6310000 62.2
2021-05-04 09:35:00 56.2 58.0 41.6 56.2 56.2 4.2 9.6 5.7 342.6 3.3 0.00 0.6950000 62.2
2021-05-04 09:40:00 56.9 55.4 41.1 56.9 56.9 7.1 8.5 5.6 336.0 1.9 0.00 0.3600000 62.2
2021-05-04 09:45:00 56.5 57.5 41.7 56.5 56.5 4.4 9.9 6.1 348.8 342.3 0.00 0.7280000 62.3
2021-05-04 09:50:00 57.6 53.7 40.9 57.6 57.6 3.5 9.0 5.2 334.1 16.8 0.00 0.7300000 62.3
2021-05-04 09:55:00 57.8 52.3 40.4 57.8 57.8 5.5 12.6 6.8 87.5 19.9 0.00 0.7210000 62.3
2021-05-04 10:00:00 58.0 51.3 40.1 58.0 58.0 9.6 9.6 4.9 20.6 22.8 0.00 0.8220000 62.3
2021-05-04 10:05:00 58.9 51.6 41.1 58.9 58.9 2.4 9.4 6.5 335.0 0.7 0.00 0.7610000 62.3
2021-05-04 10:10:00 57.8 53.8 41.1 57.8 57.8 4.2 9.2 4.9 12.9 348.4 0.00 0.7720000 62.4
2021-05-04 10:15:00 58.1 52.6 40.9 58.1 58.1 6.9 10.5 7.1 23.8 6.4 0.00 0.8320000 62.4
2021-05-04 10:20:00 58.6 50.4 40.3 58.6 58.6 6.3 8.8 5.9 21.8 11.9 0.00 0.2760000 62.5
2021-05-04 10:25:00 58.1 51.6 40.3 58.1 58.1 3.5 6.3 4.2 349.2 14.7 0.00 0.9280000 62.5
2021-05-04 10:30:00 57.1 53.5 40.4 57.1 57.1 3.7 8.3 5.6 54.9 338.8 0.00 0.6840000 62.5
2021-05-04 10:35:00 58.4 56.7 43.1 58.4 58.4 9.4 9.4 4.2 338.0 329.6 0.00 0.7000000 62.6
2021-05-04 10:40:00 58.0 56.5 42.6 58.0 58.0 6.7 10.8 6.8 2.7 335.7 0.00 0.3820000 62.6
2021-05-04 10:45:00 58.8 51.2 40.8 58.8 58.8 5.6 8.8 6.2 55.4 20.1 0.00 0.5150000 62.7
2021-05-04 10:50:00 60.1 49.5 41.1 60.1 60.1 4.0 9.7 4.5 31.8 2.5 0.00 0.9580000 62.7
2021-05-04 10:55:00 59.8 48.6 40.4 59.8 59.8 7.6 8.3 5.2 43.0 53.9 0.00 1.0840000 62.8
2021-05-04 11:00:00 59.7 49.0 40.5 59.7 59.7 7.1 8.3 6.2 18.9 15.1 0.00 0.3820000 62.8
2021-05-04 11:05:00 59.4 49.0 40.3 59.4 59.4 5.6 6.7 5.0 37.2 9.3 0.00 0.4600000 62.9
2021-05-04 11:10:00 58.7 49.0 39.6 58.7 58.7 5.5 7.4 5.0 24.5 10.2 0.00 0.3140000 63.0
2021-05-04 11:15:00 59.1 49.4 40.1 59.1 59.1 2.1 5.8 3.3 105.4 350.6 0.00 0.9660000 63.1
2021-05-04 11:20:00 60.3 47.0 40.0 60.3 60.3 6.7 8.7 4.4 18.4 20.2 0.00 0.6200000 63.1
2021-05-04 11:25:00 60.8 48.8 41.4 60.8 60.8 4.0 9.0 6.0 86.0 40.8 0.00 1.0610000 63.2
2021-05-04 11:30:00 61.4 45.1 39.9 61.4 61.4 6.5 6.9 3.4 41.7 79.4 0.00 1.0920000 63.3
2021-05-04 11:35:00 61.9 48.5 42.3 61.9 61.9 3.1 9.4 5.8 52.4 34.7 0.00 1.2040000 63.4
2021-05-04 11:40:00 61.1 47.5 41.0 61.1 61.1 7.1 9.7 4.3 32.7 358.1 0.00 0.4080000 63.4
2021-05-04 11:45:00 61.6 46.4 40.9 61.6 61.6 4.7 9.0 5.0 23.1 45.6 0.00 1.1440000 63.5
2021-05-04 11:50:00 61.1 47.0 40.7 61.1 61.1 4.4 9.0 6.1 49.5 5.0 0.00 0.8360000 63.6
2021-05-04 11:55:00 63.1 43.5 40.5 63.1 63.1 6.3 8.1 5.1 350.6 17.2 0.00 1.1180000 63.8
2021-05-04 12:00:00 61.3 47.2 41.0 61.3 61.3 3.5 6.9 4.1 315.8 355.5 0.00 1.0250000 63.9
2021-05-04 12:05:00 61.9 44.7 40.1 61.9 61.9 3.3 7.8 5.5 64.3 18.8 0.00 0.9820000 64.0
2021-05-04 12:10:00 62.0 44.7 40.2 62.0 62.0 7.8 9.4 4.6 1.9 36.6 0.00 0.9520000 64.1
2021-05-04 12:15:00 61.6 47.8 41.6 61.6 61.6 4.0 10.6 6.3 315.4 346.9 0.00 0.9360000 64.2
2021-05-04 12:20:00 61.0 50.6 42.5 61.0 61.0 6.2 11.2 7.0 258.3 320.5 0.00 0.9650000 64.4
2021-05-04 12:25:00 60.9 48.3 41.3 60.9 60.9 10.3 10.5 5.6 342.6 297.6 0.00 0.9670000 64.5
2021-05-04 12:30:00 60.5 50.7 42.1 60.5 60.5 6.7 12.4 8.0 333.9 328.3 0.00 0.9490000 64.6
2021-05-04 12:35:00 61.4 52.9 44.0 61.4 61.4 9.7 9.7 4.3 338.7 324.8 0.00 0.9190000 64.8
2021-05-04 12:40:00 61.9 46.1 41.0 61.9 61.9 4.4 10.1 7.0 339.0 343.9 0.00 0.9140000 64.9
2021-05-04 12:45:00 61.8 44.0 39.7 61.8 61.8 6.2 7.2 4.8 50.2 23.2 0.00 0.9110000 65.1
2021-05-04 12:50:00 62.2 50.9 43.8 62.2 62.2 5.3 8.5 5.2 309.8 323.7 0.00 0.9130000 65.3
2021-05-04 12:55:00 63.3 50.0 44.3 63.3 63.3 4.9 8.8 5.0 304.4 314.0 0.00 0.9150000 65.4
2021-05-04 13:00:00 62.8 50.9 44.4 62.8 62.8 3.5 10.3 6.0 253.8 330.2 0.00 0.9150000 65.6
2021-05-04 13:05:00 62.8 44.1 40.6 62.8 62.8 3.8 11.0 6.7 336.9 5.1 0.00 0.9110000 65.7
2021-05-04 13:10:00 64.3 41.3 40.3 64.3 64.3 6.0 6.0 2.8 60.1 28.9 0.00 0.9100000 65.9
2021-05-04 13:15:00 63.9 41.5 40.1 63.9 63.9 6.3 10.6 6.4 320.3 41.9 0.00 0.9130000 66.0
2021-05-04 13:20:00 62.8 42.3 39.6 62.8 62.8 3.3 8.0 4.7 44.0 52.5 0.00 0.9090000 66.2
2021-05-04 13:25:00 64.9 39.6 39.8 64.9 64.9 10.8 10.8 4.1 42.3 24.4 0.00 0.9050000 66.3
2021-05-04 13:30:00 64.1 40.3 39.5 64.1 64.1 6.7 8.7 6.5 345.8 48.3 0.00 0.9050000 66.5
2021-05-04 13:35:00 64.9 40.1 40.0 64.9 64.9 5.1 9.7 5.1 71.7 42.8 0.00 0.9030000 66.6
2021-05-04 13:40:00 64.7 40.2 40.0 64.7 64.7 3.1 9.6 6.1 80.4 44.9 0.00 0.8970000 66.7
2021-05-04 13:45:00 65.8 38.6 39.9 65.8 65.8 3.8 4.2 2.0 104.2 96.1 0.00 0.8970000 66.8
2021-05-04 13:50:00 65.6 38.0 39.3 65.6 65.6 2.4 8.5 5.2 3.3 360.0 0.00 0.8930000 67.0
2021-05-04 13:55:00 65.9 39.8 40.8 65.9 65.9 1.7 9.9 3.8 115.2 30.8 0.00 0.8890000 67.1
2021-05-04 14:00:00 64.9 39.5 39.7 64.9 64.9 3.7 8.1 5.3 83.0 88.7 0.00 0.8840000 67.3
2021-05-04 14:05:00 66.5 42.7 43.1 66.5 66.5 4.4 5.8 3.3 307.6 80.8 0.00 0.8800000 67.4
2021-05-04 14:10:00 66.3 44.4 44.0 66.3 66.3 4.2 9.0 5.2 0.6 332.4 0.00 0.8730000 67.5
2021-05-04 14:15:00 65.8 43.3 42.8 65.8 65.8 3.3 6.2 3.8 261.7 346.4 0.00 0.8670000 67.6
2021-05-04 14:20:00 66.4 37.2 39.5 66.4 66.4 5.5 7.8 4.5 20.1 51.1 0.00 0.8600000 67.8
2021-05-04 14:25:00 66.3 37.9 39.9 66.3 66.3 2.6 7.1 4.0 99.7 68.1 0.00 0.8550000 67.9
2021-05-04 14:30:00 65.8 41.4 41.7 65.8 65.8 3.8 7.8 3.9 308.0 332.2 0.00 0.8480000 68.0
2021-05-04 14:35:00 65.9 40.1 41.0 65.9 65.9 2.2 5.8 3.7 272.1 302.2 0.00 0.8420000 68.1
2021-05-04 14:40:00 66.1 38.1 39.8 66.1 66.1 3.1 4.4 2.7 209.9 194.0 0.00 0.8340000 68.2
2021-05-04 14:45:00 66.6 44.4 44.3 66.6 66.6 7.8 8.3 5.4 307.5 300.6 0.00 0.8250000 68.4
2021-05-04 14:50:00 66.7 37.3 39.8 66.7 66.7 6.0 11.3 7.4 9.4 330.2 0.00 0.8140000 68.5
2021-05-04 14:55:00 68.0 37.1 40.8 68.0 68.0 5.1 6.7 4.7 0.6 358.7 0.00 0.8050000 68.6
2021-05-04 15:00:00 66.7 43.3 43.6 66.7 66.7 5.6 6.3 4.0 338.7 330.9 0.00 0.7950000 68.7
2021-05-04 15:05:00 67.0 42.7 43.6 67.0 67.0 8.0 10.3 7.6 346.9 334.0 0.00 0.7850000 68.8
2021-05-04 15:10:00 65.9 43.6 43.2 65.9 65.9 3.7 9.4 6.7 282.2 326.1 0.00 0.7730000 68.9
2021-05-04 15:15:00 67.6 39.2 41.9 67.6 67.6 3.1 5.6 3.1 289.2 311.5 0.00 0.7650000 69.0
2021-05-04 15:20:00 67.5 42.7 44.0 67.5 67.5 2.6 7.1 4.4 320.6 306.7 0.00 0.7530000 69.1
2021-05-04 15:25:00 67.0 36.5 39.6 67.0 67.0 2.4 9.2 6.1 349.4 325.9 0.00 0.7400000 69.2
2021-05-04 15:30:00 67.3 43.3 44.2 67.3 67.3 3.7 8.8 6.0 293.8 313.4 0.00 0.7310000 69.3
2021-05-04 15:35:00 67.6 36.8 40.2 67.6 67.6 7.1 7.2 4.4 338.6 308.3 0.00 0.7190000 69.3
2021-05-04 15:40:00 68.7 38.1 42.2 68.7 68.7 4.4 7.4 3.2 262.4 291.0 0.00 0.7070000 69.4
2021-05-04 15:45:00 69.2 38.2 42.6 69.2 69.2 2.2 6.7 3.1 313.0 215.7 0.00 0.6940000 69.5
2021-05-04 15:50:00 68.9 36.5 41.2 68.9 68.9 7.8 7.8 3.9 335.0 359.3 0.00 0.6830000 69.6
2021-05-04 15:55:00 68.8 34.5 39.6 68.8 68.8 2.4 6.3 3.6 120.0 41.9 0.00 0.6720000 69.6
2021-05-04 16:00:00 68.9 35.0 40.1 68.9 68.9 4.6 5.1 3.4 148.2 120.4 0.00 0.6570000 69.7
2021-05-04 16:05:00 68.9 40.6 43.9 68.9 68.9 3.7 6.0 3.8 249.7 194.0 0.00 0.6430000 69.8
2021-05-04 16:10:00 69.4 36.5 41.7 69.4 69.4 4.0 5.6 3.9 193.3 212.0 0.00 0.6300000 69.9
2021-05-04 16:15:00 69.7 40.6 44.7 69.7 69.7 3.7 4.7 3.1 197.2 183.5 0.00 0.6160000 69.9
2021-05-04 16:20:00 70.0 35.1 41.1 70.0 70.0 5.3 6.2 3.7 175.8 182.7 0.00 0.6030000 70.0
2021-05-04 16:25:00 69.5 35.7 41.1 69.5 69.5 5.8 8.1 5.8 153.8 146.4 0.00 0.5850000 70.0
2021-05-04 16:30:00 68.9 36.8 41.4 68.9 68.9 5.8 6.2 5.3 157.7 133.0 0.00 0.5710000 70.1
2021-05-04 16:35:00 69.2 35.6 40.8 69.2 69.2 4.2 7.2 4.3 116.5 180.3 0.00 0.5570000 70.1
2021-05-04 16:40:00 69.5 36.3 41.6 69.5 69.5 3.5 7.8 4.8 175.8 121.4 0.00 0.5430000 70.2
2021-05-04 16:45:00 69.2 33.7 39.4 69.2 69.2 1.9 8.1 4.9 42.7 100.2 0.00 0.5270000 70.2
2021-05-04 16:50:00 69.9 35.3 41.3 69.9 69.9 2.1 3.5 2.4 216.7 215.9 0.00 0.5130000 70.3
2021-05-04 16:55:00 69.9 33.1 39.5 69.9 69.9 3.0 4.0 2.6 337.6 296.8 0.00 0.4970000 70.3
2021-05-04 17:00:00 70.2 32.5 39.3 70.2 70.2 1.7 4.9 2.4 216.5 141.0 0.00 0.4820000 70.3
2021-05-04 17:05:00 70.8 31.7 39.2 70.8 70.8 2.1 3.7 1.6 85.5 136.7 0.00 0.4650000 70.4
2021-05-04 17:10:00 70.1 31.9 38.8 70.1 70.1 3.5 6.0 4.2 73.2 104.6 0.00 0.4480000 70.4
2021-05-04 17:15:00 70.1 33.6 40.1 70.1 70.1 3.0 4.4 2.6 152.4 73.6 0.00 0.4320000 70.5
2021-05-04 17:20:00 70.2 32.4 39.2 70.2 70.2 2.8 5.8 3.6 76.8 122.4 0.00 0.4150000 70.5
2021-05-04 17:25:00 70.6 31.4 38.9 70.6 70.6 2.4 3.3 2.2 123.6 50.6 0.00 0.3980000 70.5
2021-05-04 17:30:00 71.0 31.4 39.1 71.0 71.0 1.5 3.1 1.3 58.1 71.5 0.00 0.3820000 70.6
2021-05-04 17:35:00 71.0 33.9 41.1 71.0 71.0 1.2 5.6 2.7 180.2 158.1 0.00 0.3640000 70.6
2021-05-04 17:40:00 70.5 32.4 39.5 70.5 70.5 4.2 8.8 5.1 133.4 144.1 0.00 0.3480000 70.6
2021-05-04 17:45:00 70.4 31.3 38.5 70.4 70.4 1.0 5.5 4.0 10.9 119.5 0.00 0.3310000 70.6
2021-05-04 17:50:00 70.6 31.3 38.8 70.6 70.6 4.4 5.8 3.0 108.6 112.6 0.00 0.3140000 70.6
2021-05-04 17:55:00 70.5 30.9 38.4 70.5 70.5 4.2 4.2 2.5 89.0 117.9 0.00 0.2980000 70.6
2021-05-04 18:00:00 70.3 31.6 38.8 70.3 70.3 7.6 7.6 4.9 103.4 107.8 0.00 0.2810000 70.7
2021-05-04 18:05:00 70.5 30.6 38.1 70.5 70.5 5.1 8.0 5.0 83.4 91.3 0.00 0.2640000 70.7
2021-05-04 18:10:00 70.7 32.8 40.0 70.7 70.7 4.9 8.0 5.4 95.8 98.4 0.00 0.2470000 70.7
2021-05-04 18:15:00 70.5 31.9 39.2 70.5 70.5 6.9 7.2 5.6 131.1 111.8 0.00 0.2310000 70.7
2021-05-04 18:20:00 70.2 31.5 38.6 70.2 70.2 4.2 7.8 5.5 133.3 139.9 0.00 0.0960000 70.7
2021-05-04 18:25:00 70.0 31.5 38.4 70.0 70.0 5.1 6.0 4.9 113.6 120.5 0.00 0.0300000 70.7
2021-05-04 18:30:00 70.3 35.3 41.5 70.3 70.3 4.9 6.0 4.6 95.1 112.0 0.00 0.0290000 70.7
2021-05-04 18:35:00 70.1 33.5 40.0 70.1 70.1 7.6 7.8 6.6 124.6 114.9 0.00 0.0280000 70.7
2021-05-04 18:40:00 69.6 34.2 40.1 69.6 69.6 5.1 8.8 7.0 95.0 110.9 0.00 0.0270000 70.7
2021-05-04 18:45:00 69.4 34.6 40.3 69.4 69.4 7.1 8.1 6.8 150.6 115.3 0.00 0.0260000 70.7
2021-05-04 18:50:00 69.3 32.7 38.7 69.3 69.3 6.9 8.1 6.1 146.0 138.0 0.00 0.0770000 70.6
2021-05-04 18:55:00 68.7 34.7 39.7 68.7 68.7 7.1 7.6 6.5 121.7 118.0 0.00 0.0730000 70.6
2021-05-04 19:00:00 68.5 35.5 40.2 68.5 68.5 6.3 8.5 6.4 136.0 128.8 0.00 0.0920000 70.6
2021-05-04 19:05:00 68.2 37.7 41.4 68.2 68.2 5.5 6.5 5.4 122.4 128.8 0.00 0.0800000 70.6
2021-05-04 19:10:00 67.7 37.0 40.5 67.7 67.7 6.3 8.7 6.9 137.4 137.0 0.00 0.0640000 70.6
2021-05-04 19:15:00 68.0 36.3 40.3 68.0 68.0 7.6 9.0 7.0 139.2 138.4 0.00 0.0490000 70.6
2021-05-04 19:20:00 67.4 37.0 40.2 67.4 67.4 6.7 8.1 6.2 156.2 140.9 0.00 0.0350000 70.5
2021-05-04 19:25:00 67.5 36.4 39.9 67.5 67.5 7.6 10.6 8.3 136.4 143.0 0.00 0.0240000 70.5
2021-05-04 19:30:00 67.0 38.1 40.6 67.0 67.0 6.2 7.8 6.6 132.1 138.0 0.00 0.0160000 70.4
2021-05-04 19:35:00 66.0 40.1 41.1 66.0 66.0 6.3 7.1 6.0 148.4 138.7 0.00 0.0090000 70.4
2021-05-04 19:40:00 65.4 39.8 40.3 65.4 65.4 4.9 6.5 5.6 127.6 138.7 0.00 0.0050000 70.4
2021-05-04 19:45:00 64.9 40.5 40.3 64.9 64.9 6.0 6.0 5.1 134.8 141.7 0.00 0.0030000 70.3
2021-05-04 19:50:00 64.6 40.4 40.0 64.6 64.6 5.1 6.0 5.0 143.9 139.4 0.00 0.0020000 70.3
2021-05-04 19:55:00 64.4 41.7 40.6 64.4 64.4 4.7 5.8 4.8 149.9 140.9 0.00 0.0010000 70.2
2021-05-04 20:00:00 63.9 42.1 40.4 63.9 63.9 4.6 5.5 4.7 143.7 145.4 0.00 0.0000000 70.2
2021-05-04 20:05:00 63.9 43.1 41.0 63.9 63.9 4.2 5.5 4.8 148.6 145.9 0.00 0.0000000 70.1
2021-05-04 20:10:00 63.4 43.9 41.0 63.4 63.4 4.2 4.7 4.3 150.5 149.6 0.00 0.0000000 70.1
2021-05-04 20:15:00 63.0 44.3 40.9 63.0 63.0 4.6 4.6 4.1 153.6 150.5 0.00 0.0000000 70.0
2021-05-04 20:20:00 62.6 44.1 40.4 62.6 62.6 7.2 8.7 5.1 154.5 147.8 0.00 0.0000000 70.0
2021-05-04 20:25:00 63.3 44.0 41.0 63.3 63.3 5.6 8.8 6.7 145.1 147.2 0.00 0.0000000 69.9
2021-05-04 20:30:00 63.2 44.4 41.2 63.2 63.2 6.5 6.7 5.9 139.6 148.0 0.00 0.0000000 69.8
2021-05-04 20:35:00 62.8 44.8 41.1 62.8 62.8 6.0 6.3 5.8 139.6 147.3 0.00 0.0000000 69.8
2021-05-04 20:40:00 62.9 44.8 41.2 62.9 62.9 5.5 6.9 5.8 150.4 150.7 0.00 0.0000000 69.7
2021-05-04 20:45:00 62.8 45.1 41.2 62.8 62.8 5.5 7.2 6.1 155.0 154.7 0.00 0.0000000 69.7
2021-05-04 20:50:00 62.7 45.9 41.5 62.7 62.7 5.8 6.7 5.7 154.3 155.3 0.00 0.0000000 69.6
2021-05-04 20:55:00 62.4 46.4 41.6 62.4 62.4 6.3 6.3 5.5 150.1 149.8 0.00 0.0000000 69.5
2021-05-04 21:00:00 61.9 47.9 41.9 61.9 61.9 4.9 5.6 5.1 158.6 152.2 0.00 0.0000000 69.5
2021-05-04 21:05:00 61.6 49.9 42.7 61.6 61.6 4.2 5.6 4.7 147.6 152.7 0.00 0.0000000 69.4
2021-05-04 21:10:00 60.7 51.3 42.7 60.7 60.7 4.6 4.9 4.3 131.4 144.0 0.00 0.0000000 69.3
2021-05-04 21:15:00 60.4 51.1 42.2 60.4 60.4 4.0 4.9 4.3 137.9 140.5 0.00 0.0000000 69.2
2021-05-04 21:20:00 60.3 51.5 42.4 60.3 60.3 4.0 4.7 4.1 142.6 139.6 0.00 0.0000000 69.2
2021-05-04 21:25:00 59.8 52.5 42.4 59.8 59.8 3.8 5.1 4.1 155.6 148.5 0.00 0.0000000 69.1
2021-05-04 21:30:00 59.7 53.3 42.7 59.7 59.7 3.8 4.7 4.2 152.8 157.1 0.00 0.0000000 69.0
2021-05-04 21:35:00 59.1 53.7 42.3 59.1 59.1 3.5 4.4 3.8 133.3 143.4 0.00 0.0000000 69.0
2021-05-04 21:40:00 58.9 55.3 42.9 58.9 58.9 3.5 4.7 4.1 132.4 120.4 0.00 0.0000000 68.9
2021-05-04 21:45:00 58.4 55.3 42.5 58.4 58.4 4.6 4.7 4.1 134.3 142.3 0.00 0.0000000 68.8
2021-05-04 21:50:00 59.0 54.9 42.8 59.0 59.0 5.8 6.0 5.2 144.2 146.8 0.00 0.0000000 68.8
2021-05-04 21:55:00 59.2 54.6 42.8 59.2 59.2 5.5 6.3 5.3 155.9 152.2 0.00 0.0000000 68.7
2021-05-04 22:00:00 59.2 54.1 42.6 59.2 59.2 5.3 6.2 5.5 148.8 152.3 0.00 0.0000000 68.6
2021-05-04 22:05:00 58.9 53.8 42.2 58.9 58.9 5.8 6.0 5.4 149.1 150.0 0.00 0.0000000 68.6
2021-05-04 22:10:00 58.9 54.9 42.7 58.9 58.9 5.1 6.5 5.3 141.3 147.4 0.00 0.0000000 68.5
2021-05-04 22:15:00 58.7 55.9 43.0 58.7 58.7 5.1 6.0 5.5 145.4 151.0 0.00 0.0000000 68.5
2021-05-04 22:20:00 58.6 55.0 42.5 58.6 58.6 5.3 6.5 5.4 152.9 150.6 0.00 0.0000000 68.4
2021-05-04 22:25:00 58.3 55.3 42.3 58.3 58.3 4.9 6.0 4.8 142.5 150.2 0.00 0.0000000 68.3
2021-05-04 22:30:00 58.4 55.7 42.6 58.4 58.4 4.7 6.0 5.2 147.7 148.4 0.00 0.0000000 68.3
2021-05-04 22:35:00 58.4 55.9 42.7 58.4 58.4 5.5 6.3 5.5 154.8 147.1 0.00 0.0000000 68.2
2021-05-04 22:40:00 57.8 56.5 42.4 57.8 57.8 5.3 5.8 5.2 153.3 148.2 0.00 0.0000000 68.1
2021-05-04 22:45:00 58.0 56.6 42.6 58.0 58.0 5.1 5.8 5.3 144.7 150.5 0.00 0.0000000 68.1
2021-05-04 22:50:00 57.6 56.8 42.4 57.6 57.6 5.8 6.5 5.6 142.7 145.6 0.00 0.0000000 68.0
2021-05-04 22:55:00 58.1 55.9 42.4 58.1 58.1 5.8 6.9 5.9 153.4 145.8 0.00 0.0000000 67.9
2021-05-04 23:00:00 58.0 55.9 42.3 58.0 58.0 6.3 7.4 6.2 142.6 147.4 0.00 0.0000000 67.9
2021-05-04 23:05:00 58.0 55.9 42.4 58.0 58.0 6.5 7.4 6.4 138.7 147.3 0.00 0.0000000 67.8
2021-05-04 23:10:00 58.2 55.6 42.4 58.2 58.2 6.7 8.0 6.6 132.2 143.3 0.00 0.0000000 67.7
2021-05-04 23:15:00 58.0 56.2 42.4 58.0 58.0 6.5 7.4 6.3 151.0 146.9 0.00 0.0000000 67.7
2021-05-04 23:20:00 57.6 57.6 42.7 57.6 57.6 5.6 6.5 5.7 139.1 146.7 0.00 0.0000000 67.6
2021-05-04 23:25:00 57.0 58.8 42.7 57.0 57.0 5.3 6.2 5.4 147.0 147.2 0.00 0.0000000 67.6
2021-05-04 23:30:00 56.9 59.1 42.8 56.9 56.9 5.1 6.2 5.3 152.3 148.6 0.00 0.0000000 67.5
2021-05-04 23:35:00 56.6 59.6 42.7 56.6 56.6 4.2 5.8 5.2 150.4 151.1 0.00 0.0000000 67.5
2021-05-04 23:40:00 56.4 59.9 42.6 56.4 56.4 4.4 5.3 4.4 164.4 155.5 0.00 0.0000000 67.4
2021-05-04 23:45:00 56.0 60.8 42.6 56.0 56.0 4.4 4.9 4.4 153.0 153.4 0.00 0.0000000 67.3
2021-05-04 23:50:00 55.8 61.8 42.9 55.8 55.8 4.2 4.9 4.4 157.1 151.7 0.00 0.0000000 67.3
2021-05-04 23:55:00 55.7 61.8 42.8 55.7 55.7 5.1 5.3 4.5 154.0 154.3 0.00 0.0000000 67.2
2021-05-05 00:00:00 55.7 61.8 42.8 55.7 55.7 5.1 5.8 5.1 161.6 159.0 0.00 0.0000000 67.1

Data is courtesy of the NM Climate Center. DO NOT USE IN LEGAL PROCEEDINGS.